PASHUHMA

Guest
Details From PASH - SHISHMAREF
To UHMA - UGOLNY
Flight Number -
Tags generated
Created
Modified
Stats Distance 418 nm / 774 km
Max Altitude 34,000 ft / 10,363 m
Waypoints 5
Social Downloads 0
Likes 0
Share VATSIM

Download

Looking for another format? Having issues loading an existing format? Contact us
Advertisement - Login to hide

Notes

Basic altitude profile: - Ascent Rate: 2500ft/min - Ascent Speed: 250kts - Cruise Altitude: 35000ft - Cruise Speed: 420kts - Descent Rate: 1500ft/min - Descent Speed: 250kts Options: - Use NATs: yes - Use PACOTS: yes - Use low airways: yes - Use high airways: yes

Route

PASH GENRI B244 UHMA

ID Type Via Altitude Latitude Longitude Leg Dist Tot Dist Heading (true) Name
O PASH APT - 0 ft / 0 m 66.24957˚ -166.08935˚ - 0 nm - SHISHMAREF
GENRI FIX - 34,000 ft / 10,363 m 66.50167˚ -170.32500˚ 103 nm 103 nm 280° / 277° -
BENIR FIX B244 (AWY-HI) 34,000 ft / 10,363 m 66.31000˚ -172.50667˚ 53 nm 156 nm 259° / 257° -
NB NDB B244 (AWY-HI) 28,900 ft / 8,809 m 65.51639˚ -179.28000˚ 172 nm 329 nm 257° / 251° UELKAL NDB
O UHMA APT B244 (AWY-LO) 28,900 ft / 8,809 m 64.73495˚ 177.74148˚ 88 nm 418 nm 239° / 237° UGOLNY

Altitude Profile

Advertisement - Login to hide

Weather


0- 5 10 15 20 25 30 35+ Temperature / ° C

Clouds and Precipitation
Forecast for 2017-12-11 06:00 UTC. Updated an hour ago

Ground ~20,000 ft ~40,000 ft Winds

PASH

Details ICAO PASH (SHH)
Name SHISHMAREF
Region USA (Alaska)
Timezone America/Nome (UTC-9.0)
Stats Elevation 12 ft / 4 m (AMSL)
Location 66.249567° -166.089346°
Runways 1
Magnetic Variation 9.792° E

METAR

PASH 110356Z AUTO 36018KT 9SM -SN OVC013 M09/M11 A2973 RMK AO2 PK WND 01027/0329 SLP068 P0000 T10891106 FZRANO

Decode

TAF

Not found

Departure Runways

ID Width Length Bearing (true) Bearing (mag) Surface Threshold Offset Overrun Length
05 69 ft / 21 m 4,983 ft / 1,519 m 63.45° 53.66° Asphalt 0 ft / 0 m 0 ft / 0 m
23 69 ft / 21 m 4,983 ft / 1,519 m 243.48° 233.69° Asphalt 0 ft / 0 m 0 ft / 0 m

UHMA

Details ICAO UHMA (DYR)
Name UGOLNY
Region Russia
Timezone Asia/Anadyr (UTC+12.0)
Stats Elevation 194 ft / 59 m (AMSL)
Location 64.734950° 177.741483°
Runways 1
Magnetic Variation 1.434° E

METAR

UHMA 110430Z 34004MPS 9999 VCFG NSC M23/M26 Q1026 R88/75//40 NOSIG RMK END R01/34005MPS QFE766/1021

Decode

TAF

TAF UHMA 110143Z 1103/1203 36006MPS 9999 SCT030 TEMPO 1103/1203 31008G13MPS 2000 -SN BR SCT005 BKN023

Decode

Destination Runways

ID Width Length Bearing (true) Bearing (mag) Surface Threshold Offset Overrun Length
01 197 ft / 60 m 11,439 ft / 3,487 m 14.65° 13.22° Concrete 0 ft / 0 m 240 ft / 73 m
19 197 ft / 60 m 11,439 ft / 3,487 m 194.66° 193.23° Concrete 0 ft / 0 m 240 ft / 73 m